Weather at Mount Gunson Airport

Public forecast

Using degrees Celsius for public forecast. Weather courtesy of forecast.io.

Closest aviation weather report (METAR) to Mount Gunson Airport

Closest report is Woomera Airfield, 26.4 nm (48.8 km) NW. Retrieved 2021/06/15 14:30 UTC (10 minutes ago):

YPWR 151430Z AUTO 31010KT 9999 // NCD 07/04 Q1012 RF000/0008

Closest aviation forecast (TAF) to Mount Gunson Airport

Closest forecast is Woomera Airfield, 26.4 nm (48.8 km) NW. Retrieved 2021/06/15 12:00 UTC (3 hours ago):

TAF YPWR 151112Z 1512/1606 31012KT CAVOK FM160000 30018KT 9999 SCT030 FM160300 26016G29KT 9999 SCT030